sensor_id;sensor_type;location;lat;lon;timestamp;pressure;altitude;pressure_sealevel;temperature;humidity
40384;BME280;26097;42.366;23.818;2022-12-05T00:02:48;95082.94;;;3.17;100.00
40384;BME280;26097;42.366;23.818;2022-12-05T00:05:49;95078.72;;;3.14;100.00
40384;BME280;26097;42.366;23.818;2022-12-05T00:08:49;95072.91;;;3.08;100.00
40384;BME280;26097;42.366;23.818;2022-12-05T00:11:50;95067.84;;;3.05;100.00
40384;BME280;26097;42.366;23.818;2022-12-05T00:14:50;95061.78;;;3.07;100.00
40384;BME280;26097;42.366;23.818;2022-12-05T00:17:50;95064.28;;;3.09;100.00
40384;BME280;26097;42.366;23.818;2022-12-05T00:20:51;95067.66;;;3.11;100.00
40384;BME280;26097;42.366;23.818;2022-12-05T00:23:52;95054.84;;;3.09;100.00
40384;BME280;26097;42.366;23.818;2022-12-05T00:26:52;95057.44;;;3.08;100.00
40384;BME280;26097;42.366;23.818;2022-12-05T00:29:53;95058.13;;;3.13;100.00
40384;BME280;26097;42.366;23.818;2022-12-05T00:32:53;95052.19;;;3.11;100.00
40384;BME280;26097;42.366;23.818;2022-12-05T00:35:53;95058.25;;;3.10;100.00
40384;BME280;26097;42.366;23.818;2022-12-05T00:38:54;95049.69;;;3.09;100.00
40384;BME280;26097;42.366;23.818;2022-12-05T00:41:54;95061.56;;;3.13;100.00
40384;BME280;26097;42.366;23.818;2022-12-05T00:44:55;95060.78;;;3.11;100.00
40384;BME280;26097;42.366;23.818;2022-12-05T00:47:55;95060.72;;;3.13;100.00
40384;BME280;26097;42.366;23.818;2022-12-05T00:51:23;95066.81;;;3.10;100.00
40384;BME280;26097;42.366;23.818;2022-12-05T00:54:26;95067.75;;;3.08;100.00
40384;BME280;26097;42.366;23.818;2022-12-05T00:57:26;95063.38;;;3.10;100.00
40384;BME280;26097;42.366;23.818;2022-12-05T01:00:27;95061.66;;;3.10;100.00
40384;BME280;26097;42.366;23.818;2022-12-05T01:03:27;95060.00;;;3.09;100.00
40384;BME280;26097;42.366;23.818;2022-12-05T01:06:28;95058.22;;;3.11;100.00
40384;BME280;26097;42.366;23.818;2022-12-05T01:09:28;95065.03;;;3.12;100.00
40384;BME280;26097;42.366;23.818;2022-12-05T01:12:29;95062.41;;;3.14;100.00
40384;BME280;26097;42.366;23.818;2022-12-05T01:15:30;95059.00;;;3.13;100.00
40384;BME280;26097;42.366;23.818;2022-12-05T01:18:30;95054.66;;;3.14;100.00
40384;BME280;26097;42.366;23.818;2022-12-05T01:21:31;95049.44;;;3.17;100.00
40384;BME280;26097;42.366;23.818;2022-12-05T01:24:31;95054.59;;;3.17;100.00
40384;BME280;26097;42.366;23.818;2022-12-05T01:27:32;95055.50;;;3.16;100.00
40384;BME280;26097;42.366;23.818;2022-12-05T01:30:35;95051.28;;;3.13;100.00
40384;BME280;26097;42.366;23.818;2022-12-05T01:33:36;95047.03;;;3.11;100.00
40384;BME280;26097;42.366;23.818;2022-12-05T01:36:37;95043.56;;;3.12;100.00
40384;BME280;26097;42.366;23.818;2022-12-05T01:39:38;95046.94;;;3.14;100.00
40384;BME280;26097;42.366;23.818;2022-12-05T01:42:39;95036.63;;;3.14;100.00
40384;BME280;26097;42.366;23.818;2022-12-05T01:45:41;95029.81;;;3.13;100.00
40384;BME280;26097;42.366;23.818;2022-12-05T01:48:42;95033.19;;;3.15;100.00
40384;BME280;26097;42.366;23.818;2022-12-05T01:51:48;95038.41;;;3.12;100.00
40384;BME280;26097;42.366;23.818;2022-12-05T01:54:52;95037.47;;;3.16;100.00
40384;BME280;26097;42.366;23.818;2022-12-05T01:57:55;95029.72;;;3.16;100.00
40384;BME280;26097;42.366;23.818;2022-12-05T02:00:56;95029.72;;;3.16;100.00
40384;BME280;26097;42.366;23.818;2022-12-05T02:03:57;95027.16;;;3.16;100.00
40384;BME280;26097;42.366;23.818;2022-12-05T02:06:58;95027.16;;;3.16;100.00
40384;BME280;26097;42.366;23.818;2022-12-05T02:09:59;95028.06;;;3.15;100.00
40384;BME280;26097;42.366;23.818;2022-12-05T02:13:14;95026.19;;;3.19;100.00
40384;BME280;26097;42.366;23.818;2022-12-05T02:32:59;95025.31;;;3.20;100.00
40384;BME280;26097;42.366;23.818;2022-12-05T02:39:14;95024.38;;;3.22;100.00
40384;BME280;26097;42.366;23.818;2022-12-05T02:42:32;95024.56;;;3.16;100.00
40384;BME280;26097;42.366;23.818;2022-12-05T02:45:36;95023.63;;;3.19;100.00
40384;BME280;26097;42.366;23.818;2022-12-05T02:48:39;95029.56;;;3.21;100.00
40384;BME280;26097;42.366;23.818;2022-12-05T02:51:44;95016.78;;;3.18;100.00
40384;BME280;26097;42.366;23.818;2022-12-05T02:54:47;95016.75;;;3.19;100.00
40384;BME280;26097;42.366;23.818;2022-12-05T02:57:52;95012.50;;;3.18;100.00
40384;BME280;26097;42.366;23.818;2022-12-05T03:00:55;95014.22;;;3.18;100.00
40384;BME280;26097;42.366;23.818;2022-12-05T03:03:58;95005.66;;;3.17;100.00
40384;BME280;26097;42.366;23.818;2022-12-05T03:07:06;95003.00;;;3.19;100.00
40384;BME280;26097;42.366;23.818;2022-12-05T03:10:09;95002.28;;;3.15;100.00
40384;BME280;26097;42.366;23.818;2022-12-05T03:13:15;95003.97;;;3.16;100.00
40384;BME280;26097;42.366;23.818;2022-12-05T03:16:38;94995.41;;;3.14;100.00
40384;BME280;26097;42.366;23.818;2022-12-05T03:20:18;94989.47;;;3.12;100.00
40384;BME280;26097;42.366;23.818;2022-12-05T03:23:24;94987.75;;;3.12;100.00
40384;BME280;26097;42.366;23.818;2022-12-05T03:26:36;94989.47;;;3.12;100.00
40384;BME280;26097;42.366;23.818;2022-12-05T03:33:12;94987.66;;;3.16;100.00
40384;BME280;26097;42.366;23.818;2022-12-05T03:36:17;94986.72;;;3.18;100.00
40384;BME280;26097;42.366;23.818;2022-12-05T03:39:26;94996.94;;;3.21;100.00
40384;BME280;26097;42.366;23.818;2022-12-05T03:42:32;94992.69;;;3.19;100.00
40384;BME280;26097;42.366;23.818;2022-12-05T03:45:38;94996.16;;;3.18;100.00
40384;BME280;26097;42.366;23.818;2022-12-05T03:48:52;94996.28;;;3.14;100.00
40384;BME280;26097;42.366;23.818;2022-12-05T03:55:27;95002.34;;;3.12;100.00
40384;BME280;26097;42.366;23.818;2022-12-05T03:58:41;95007.44;;;3.15;100.00
40384;BME280;26097;42.366;23.818;2022-12-05T04:01:44;95001.47;;;3.13;100.00
40384;BME280;26097;42.366;23.818;2022-12-05T04:04:52;95002.28;;;3.15;100.00
40384;BME280;26097;42.366;23.818;2022-12-05T04:08:02;95012.66;;;3.12;100.00
40384;BME280;26097;42.366;23.818;2022-12-05T04:11:08;94999.84;;;3.10;100.00
40384;BME280;26097;42.366;23.818;2022-12-05T04:14:16;95004.03;;;3.13;100.00
40384;BME280;26097;42.366;23.818;2022-12-05T04:17:45;95012.66;;;3.12;100.00
40384;BME280;26097;42.366;23.818;2022-12-05T04:20:48;95001.44;;;3.14;100.00
40384;BME280;26097;42.366;23.818;2022-12-05T04:24:37;95000.50;;;3.17;100.00
40384;BME280;26097;42.366;23.818;2022-12-05T04:31:07;94989.44;;;3.13;100.00
40384;BME280;26097;42.366;23.818;2022-12-05T04:34:11;94991.97;;;3.15;100.00
40384;BME280;26097;42.366;23.818;2022-12-05T04:37:15;94986.91;;;3.12;100.00
40384;BME280;26097;42.366;23.818;2022-12-05T04:40:32;94993.72;;;3.13;100.00
40384;BME280;26097;42.366;23.818;2022-12-05T04:43:37;94988.59;;;3.13;100.00
40384;BME280;26097;42.366;23.818;2022-12-05T04:46:40;94992.81;;;3.16;100.00
40384;BME280;26097;42.366;23.818;2022-12-05T04:49:43;94997.13;;;3.15;100.00
40384;BME280;26097;42.366;23.818;2022-12-05T04:52:48;94997.13;;;3.15;100.00
40384;BME280;26097;42.366;23.818;2022-12-05T04:55:51;95001.47;;;3.13;100.00
40384;BME280;26097;42.366;23.818;2022-12-05T04:58:54;95007.50;;;3.12;100.00
40384;BME280;26097;42.366;23.818;2022-12-05T05:02:01;95005.72;;;3.14;100.00
40384;BME280;26097;42.366;23.818;2022-12-05T05:05:08;95012.59;;;3.15;100.00
40384;BME280;26097;42.366;23.818;2022-12-05T05:08:18;95020.94;;;3.22;100.00
40384;BME280;26097;42.366;23.818;2022-12-05T05:11:21;95020.13;;;3.21;100.00
40384;BME280;26097;42.366;23.818;2022-12-05T05:14:22;95031.31;;;3.20;100.00
40384;BME280;26097;42.366;23.818;2022-12-05T05:17:22;95031.41;;;3.17;100.00
40384;BME280;26097;42.366;23.818;2022-12-05T05:20:23;95029.66;;;3.18;100.00
40384;BME280;26097;42.366;23.818;2022-12-05T05:23:23;95027.94;;;3.18;100.00
40384;BME280;26097;42.366;23.818;2022-12-05T05:26:26;95029.72;;;3.16;100.00
40384;BME280;26097;42.366;23.818;2022-12-05T05:29:26;95033.13;;;3.17;100.00
40384;BME280;26097;42.366;23.818;2022-12-05T05:32:27;95033.09;;;3.18;100.00
40384;BME280;26097;42.366;23.818;2022-12-05T05:35:27;95031.41;;;3.17;100.00
40384;BME280;26097;42.366;23.818;2022-12-05T05:38:27;95040.22;;;3.10;100.00
40384;BME280;26097;42.366;23.818;2022-12-05T05:41:33;95040.16;;;3.11;100.00
40384;BME280;26097;42.366;23.818;2022-12-05T05:44:33;95040.03;;;3.16;100.00
40384;BME280;26097;42.366;23.818;2022-12-05T05:47:34;95046.00;;;3.17;100.00
40384;BME280;26097;42.366;23.818;2022-12-05T05:50:34;95045.19;;;3.16;100.00
40384;BME280;26097;42.366;23.818;2022-12-05T05:53:34;95048.44;;;3.21;100.00
40384;BME280;26097;42.366;23.818;2022-12-05T05:56:35;95047.56;;;3.22;100.00
40384;BME280;26097;42.366;23.818;2022-12-05T05:59:35;95043.25;;;3.23;100.00
40384;BME280;26097;42.366;23.818;2022-12-05T06:02:36;95050.13;;;3.22;100.00
40384;BME280;26097;42.366;23.818;2022-12-05T06:05:36;95055.28;;;3.22;100.00
40384;BME280;26097;42.366;23.818;2022-12-05T06:08:38;95062.03;;;3.26;100.00
40384;BME280;26097;42.366;23.818;2022-12-05T06:11:39;95056.78;;;3.29;100.00
40384;BME280;26097;42.366;23.818;2022-12-05T06:14:39;95061.09;;;3.29;100.00
40384;BME280;26097;42.366;23.818;2022-12-05T06:17:40;95064.47;;;3.31;100.00
40384;BME280;26097;42.366;23.818;2022-12-05T06:20:40;95070.44;;;3.32;100.00
40384;BME280;26097;42.366;23.818;2022-12-05T06:23:41;95071.41;;;3.29;100.00
40384;BME280;26097;42.366;23.818;2022-12-05T06:26:42;95067.19;;;3.26;100.00
40384;BME280;26097;42.366;23.818;2022-12-05T06:29:42;95062.13;;;3.23;100.00
40384;BME280;26097;42.366;23.818;2022-12-05T06:32:43;95063.72;;;3.27;100.00
40384;BME280;26097;42.366;23.818;2022-12-05T06:35:43;95063.69;;;3.29;100.00
40384;BME280;26097;42.366;23.818;2022-12-05T06:38:44;95070.53;;;3.28;100.00
40384;BME280;26097;42.366;23.818;2022-12-05T06:41:44;95078.34;;;3.27;100.00
40384;BME280;26097;42.366;23.818;2022-12-05T06:44:44;95078.19;;;3.32;100.00
40384;BME280;26097;42.366;23.818;2022-12-05T06:47:46;95080.84;;;3.28;100.00
40384;BME280;26097;42.366;23.818;2022-12-05T06:50:50;95080.75;;;3.32;100.00
40384;BME280;26097;42.366;23.818;2022-12-05T06:53:51;95079.94;;;3.31;100.00
40384;BME280;26097;42.366;23.818;2022-12-05T06:56:52;95082.53;;;3.29;100.00
40384;BME280;26097;42.366;23.818;2022-12-05T06:59:52;95076.50;;;3.31;100.00
40384;BME280;26097;42.366;23.818;2022-12-05T07:03:12;95078.03;;;3.36;100.00
40384;BME280;26097;42.366;23.818;2022-12-05T07:06:13;95085.75;;;3.38;100.00
40384;BME280;26097;42.366;23.818;2022-12-05T07:09:14;95087.47;;;3.37;100.00
40384;BME280;26097;42.366;23.818;2022-12-05T07:12:17;95083.19;;;3.36;100.00
40384;BME280;26097;42.366;23.818;2022-12-05T07:15:17;95082.41;;;3.34;100.00
40384;BME280;26097;42.366;23.818;2022-12-05T07:18:18;95085.84;;;3.35;100.00
40384;BME280;26097;42.366;23.818;2022-12-05T07:21:18;95081.31;;;3.41;100.00
40384;BME280;26097;42.366;23.818;2022-12-05T07:24:21;95093.16;;;3.47;100.00
40384;BME280;26097;42.366;23.818;2022-12-05T07:27:21;95092.22;;;3.50;100.00
40384;BME280;26097;42.366;23.818;2022-12-05T07:30:22;95097.38;;;3.50;100.00
40384;BME280;26097;42.366;23.818;2022-12-05T07:33:22;95098.41;;;3.44;100.00
40384;BME280;26097;42.366;23.818;2022-12-05T07:36:23;95102.47;;;3.51;100.00
40384;BME280;26097;42.366;23.818;2022-12-05T07:39:23;95098.94;;;3.55;100.00
40384;BME280;26097;42.366;23.818;2022-12-05T07:42:23;95098.97;;;3.54;100.00
40384;BME280;26097;42.366;23.818;2022-12-05T07:45:24;95094.41;;;3.62;100.00
40384;BME280;26097;42.366;23.818;2022-12-05T07:48:24;95097.03;;;3.61;100.00
40384;BME280;26097;42.366;23.818;2022-12-05T07:51:24;95101.34;;;3.60;100.00
40384;BME280;26097;42.366;23.818;2022-12-05T07:54:25;95097.16;;;3.57;100.00
40384;BME280;26097;42.366;23.818;2022-12-05T07:57:28;95083.25;;;3.62;100.00
40384;BME280;26097;42.366;23.818;2022-12-05T08:00:29;95086.53;;;3.67;100.00
40384;BME280;26097;42.366;23.818;2022-12-05T08:03:29;95093.25;;;3.71;100.00
40384;BME280;26097;42.366;23.818;2022-12-05T08:06:32;95098.41;;;3.71;100.00
40384;BME280;26097;42.366;23.818;2022-12-05T08:09:32;95094.94;;;3.72;100.00
40384;BME280;26097;42.366;23.818;2022-12-05T08:12:33;95092.28;;;3.75;100.00
40384;BME280;26097;42.366;23.818;2022-12-05T08:15:34;95099.81;;;3.81;100.00
40384;BME280;26097;42.366;23.818;2022-12-05T08:18:36;95095.59;;;3.79;100.00
40384;BME280;26097;42.366;23.818;2022-12-05T08:21:36;95096.53;;;3.76;100.00
40384;BME280;26097;42.366;23.818;2022-12-05T08:24:36;95101.69;;;3.76;100.00
40384;BME280;26097;42.366;23.818;2022-12-05T08:27:37;95101.78;;;3.73;100.00
40384;BME280;26097;42.366;23.818;2022-12-05T08:30:38;95095.13;;;3.67;100.00
40384;BME280;26097;42.366;23.818;2022-12-05T08:33:39;95089.16;;;3.65;100.00
40384;BME280;26097;42.366;23.818;2022-12-05T08:36:40;95077.78;;;3.71;100.00
40384;BME280;26097;42.366;23.818;2022-12-05T08:39:40;95083.66;;;3.76;100.00
40384;BME280;26097;42.366;23.818;2022-12-05T08:42:41;95085.34;;;3.77;100.00
40384;BME280;26097;42.366;23.818;2022-12-05T08:45:48;95079.41;;;3.75;100.00
40384;BME280;26097;42.366;23.818;2022-12-05T08:48:49;95081.47;;;3.64;100.00
40384;BME280;26097;42.366;23.818;2022-12-05T08:51:50;95077.88;;;3.68;100.00
40384;BME280;26097;42.366;23.818;2022-12-05T08:54:50;95078.75;;;3.68;100.00
40384;BME280;26097;42.366;23.818;2022-12-05T08:57:51;95077.06;;;3.67;100.00
40384;BME280;26097;42.366;23.818;2022-12-05T09:00:51;95069.38;;;3.66;100.00
40384;BME280;26097;42.366;23.818;2022-12-05T09:03:52;95077.88;;;3.68;100.00
40384;BME280;26097;42.366;23.818;2022-12-05T09:06:52;95080.53;;;3.66;100.00
40384;BME280;26097;42.366;23.818;2022-12-05T09:09:53;95076.00;;;3.73;100.00
40384;BME280;26097;42.366;23.818;2022-12-05T09:12:53;95068.06;;;3.79;100.00
40384;BME280;26097;42.366;23.818;2022-12-05T09:15:54;95075.50;;;3.89;100.00
40384;BME280;26097;42.366;23.818;2022-12-05T09:18:55;95070.22;;;3.92;100.00
40384;BME280;26097;42.366;23.818;2022-12-05T09:21:55;95070.03;;;3.98;100.00
40384;BME280;26097;42.366;23.818;2022-12-05T09:24:56;95068.25;;;4.00;100.00
40384;BME280;26097;42.366;23.818;2022-12-05T09:27:57;95058.03;;;3.97;100.00
40384;BME280;26097;42.366;23.818;2022-12-05T09:30:58;95063.28;;;3.94;100.00
40384;BME280;26097;42.366;23.818;2022-12-05T09:34:00;95059.81;;;3.95;100.00
40384;BME280;26097;42.366;23.818;2022-12-05T09:37:02;95059.88;;;3.93;100.00
40384;BME280;26097;42.366;23.818;2022-12-05T09:40:06;95051.25;;;3.93;100.00
40384;BME280;26097;42.366;23.818;2022-12-05T09:43:24;95048.13;;;3.84;100.00
40384;BME280;26097;42.366;23.818;2022-12-05T09:49:48;95039.38;;;3.89;100.00
40384;BME280;26097;42.366;23.818;2022-12-05T09:59:12;95043.34;;;3.99;100.00
40384;BME280;26097;42.366;23.818;2022-12-05T10:02:25;95046.03;;;3.96;100.00
40384;BME280;26097;42.366;23.818;2022-12-05T10:05:57;95036.59;;;3.95;100.00
40384;BME280;26097;42.366;23.818;2022-12-05T10:12:58;95032.22;;;3.97;100.00
40384;BME280;26097;42.366;23.818;2022-12-05T10:15:56;95034.69;;;4.00;100.00
40384;BME280;26097;42.366;23.818;2022-12-05T10:19:11;95029.53;;;4.00;100.00
40384;BME280;26097;42.366;23.818;2022-12-05T10:22:17;95030.31;;;4.02;100.00
40384;BME280;26097;42.366;23.818;2022-12-05T10:25:19;95025.94;;;4.04;100.00
40384;BME280;26097;42.366;23.818;2022-12-05T10:28:50;95023.78;;;3.92;100.00
40384;BME280;26097;42.366;23.818;2022-12-05T10:32:05;95030.56;;;3.96;100.00
40384;BME280;26097;42.366;23.818;2022-12-05T10:35:34;95021.81;;;4.00;100.00
40384;BME280;26097;42.366;23.818;2022-12-05T10:38:35;95012.91;;;4.09;100.00
40384;BME280;26097;42.366;23.818;2022-12-05T10:41:36;95009.81;;;4.23;100.00
40384;BME280;26097;42.366;23.818;2022-12-05T10:44:36;95010.47;;;4.28;100.00
40384;BME280;26097;42.366;23.818;2022-12-05T10:47:37;95014.84;;;4.26;100.00
40384;BME280;26097;42.366;23.818;2022-12-05T10:50:38;95011.44;;;4.25;100.00
40384;BME280;26097;42.366;23.818;2022-12-05T10:53:46;95008.44;;;4.12;100.00
40384;BME280;26097;42.366;23.818;2022-12-05T10:56:52;95012.63;;;4.17;100.00
40384;BME280;26097;42.366;23.818;2022-12-05T10:59:53;95006.75;;;4.11;100.00
40384;BME280;26097;42.366;23.818;2022-12-05T11:02:53;95002.50;;;4.10;100.00
40384;BME280;26097;42.366;23.818;2022-12-05T11:05:56;95000.00;;;4.09;100.00
40384;BME280;26097;42.366;23.818;2022-12-05T11:09:17;94998.63;;;3.98;100.00
40384;BME280;26097;42.366;23.818;2022-12-05T11:12:20;95004.00;;;3.92;100.00
40384;BME280;26097;42.366;23.818;2022-12-05T11:15:23;95006.53;;;3.94;100.00
40384;BME280;26097;42.366;23.818;2022-12-05T11:18:26;95003.06;;;3.95;100.00
40384;BME280;26097;42.366;23.818;2022-12-05T11:21:40;95000.50;;;3.95;100.00
40384;BME280;26097;42.366;23.818;2022-12-05T11:24:41;94989.19;;;3.97;100.00
40384;BME280;26097;42.366;23.818;2022-12-05T11:27:42;94985.44;;;4.06;100.00
40384;BME280;26097;42.366;23.818;2022-12-05T11:30:59;94982.22;;;4.01;100.00
40384;BME280;26097;42.366;23.818;2022-12-05T11:34:14;94972.13;;;3.95;100.00
40384;BME280;26097;42.366;23.818;2022-12-05T11:37:24;94972.44;;;4.09;100.00
40384;BME280;26097;42.366;23.818;2022-12-05T11:44:16;94970.44;;;4.18;100.00
40384;BME280;26097;42.366;23.818;2022-12-05T12:24:01;94942.31;;;5.00;100.00
40384;BME280;26097;42.366;23.818;2022-12-05T12:30:51;94931.22;;;4.98;100.00
40384;BME280;26097;42.366;23.818;2022-12-05T12:37:23;94919.56;;;4.88;100.00
40384;BME280;26097;42.366;23.818;2022-12-05T12:47:16;94921.28;;;4.67;100.00
40384;BME280;26097;42.366;23.818;2022-12-05T12:50:23;94919.72;;;4.63;100.00
40384;BME280;26097;42.366;23.818;2022-12-05T13:03:16;94918.53;;;4.48;100.00
40384;BME280;26097;42.366;23.818;2022-12-05T13:06:35;94909.91;;;4.49;100.00
40384;BME280;26097;42.366;23.818;2022-12-05T13:13:32;94912.69;;;4.44;100.00
40384;BME280;26097;42.366;23.818;2022-12-05T13:16:39;94908.47;;;4.41;100.00
40384;BME280;26097;42.366;23.818;2022-12-05T13:19:41;94902.56;;;4.38;100.00
40384;BME280;26097;42.366;23.818;2022-12-05T13:22:43;94906.34;;;4.29;100.00
40384;BME280;26097;42.366;23.818;2022-12-05T13:25:45;94907.50;;;4.22;100.00
40384;BME280;26097;42.366;23.818;2022-12-05T13:28:51;94909.16;;;4.23;100.00
40384;BME280;26097;42.366;23.818;2022-12-05T13:31:53;94910.13;;;4.20;100.00
40384;BME280;26097;42.366;23.818;2022-12-05T13:34:57;94920.38;;;4.22;100.00
40384;BME280;26097;42.366;23.818;2022-12-05T13:37:58;94914.44;;;4.20;100.00
40384;BME280;26097;42.366;23.818;2022-12-05T13:41:17;94910.19;;;4.19;100.00
40384;BME280;26097;42.366;23.818;2022-12-05T13:44:42;94907.59;;;4.19;100.00
40384;BME280;26097;42.366;23.818;2022-12-05T13:50:57;94912.78;;;4.19;100.00
40384;BME280;26097;42.366;23.818;2022-12-05T13:54:24;94908.63;;;4.14;100.00
40384;BME280;26097;42.366;23.818;2022-12-05T14:00:37;94908.44;;;4.19;100.00
40384;BME280;26097;42.366;23.818;2022-12-05T14:09:53;94912.16;;;4.12;100.00
40384;BME280;26097;42.366;23.818;2022-12-05T14:13:00;94913.88;;;4.11;100.00
40384;BME280;26097;42.366;23.818;2022-12-05T14:19:34;94913.22;;;4.06;100.00
40384;BME280;26097;42.366;23.818;2022-12-05T14:32:21;94903.00;;;4.03;100.00
40384;BME280;26097;42.366;23.818;2022-12-05T14:35:46;94908.28;;;4.00;100.00
40384;BME280;26097;42.366;23.818;2022-12-05T14:38:48;94909.22;;;3.97;100.00
40384;BME280;26097;42.366;23.818;2022-12-05T14:41:56;94910.22;;;3.95;100.00
40384;BME280;26097;42.366;23.818;2022-12-05T14:44:59;94914.63;;;3.91;100.00
40384;BME280;26097;42.366;23.818;2022-12-05T14:48:04;94914.50;;;3.94;100.00
40384;BME280;26097;42.366;23.818;2022-12-05T14:54:24;94915.53;;;3.90;100.00
40384;BME280;26097;42.366;23.818;2022-12-05T14:57:26;94924.09;;;3.91;100.00
40384;BME280;26097;42.366;23.818;2022-12-05T15:00:28;94922.41;;;3.90;100.00
40384;BME280;26097;42.366;23.818;2022-12-05T15:03:31;94915.69;;;3.85;100.00
40384;BME280;26097;42.366;23.818;2022-12-05T15:06:35;94911.69;;;3.77;100.00
40384;BME280;26097;42.366;23.818;2022-12-05T15:13:13;94903.22;;;3.73;100.00
40384;BME280;26097;42.366;23.818;2022-12-05T15:16:18;94904.03;;;3.75;100.00
40384;BME280;26097;42.366;23.818;2022-12-05T15:19:24;94905.72;;;3.76;100.00
40384;BME280;26097;42.366;23.818;2022-12-05T15:22:32;94912.56;;;3.77;100.00
40384;BME280;26097;42.366;23.818;2022-12-05T15:25:35;94909.09;;;3.78;100.00
40384;BME280;26097;42.366;23.818;2022-12-05T15:28:36;94910.09;;;3.74;100.00
40384;BME280;26097;42.366;23.818;2022-12-05T15:31:43;94901.47;;;3.75;100.00
40384;BME280;26097;42.366;23.818;2022-12-05T15:34:47;94901.47;;;3.75;100.00
40384;BME280;26097;42.366;23.818;2022-12-05T15:38:16;94906.53;;;3.77;100.00
40384;BME280;26097;42.366;23.818;2022-12-05T15:41:18;94908.31;;;3.76;100.00
40384;BME280;26097;42.366;23.818;2022-12-05T15:44:20;94902.34;;;3.74;100.00
40384;BME280;26097;42.366;23.818;2022-12-05T15:47:23;94903.22;;;3.73;100.00
40384;BME280;26097;42.366;23.818;2022-12-05T15:53:36;94900.66;;;3.73;100.00
40384;BME280;26097;42.366;23.818;2022-12-05T16:00:04;94891.31;;;3.70;100.00
40384;BME280;26097;42.366;23.818;2022-12-05T16:03:17;94893.81;;;3.72;100.00
40384;BME280;26097;42.366;23.818;2022-12-05T16:09:31;94897.28;;;3.71;100.00
40384;BME280;26097;42.366;23.818;2022-12-05T16:12:37;94895.72;;;3.67;100.00
40384;BME280;26097;42.366;23.818;2022-12-05T16:15:42;94899.31;;;3.63;100.00
40384;BME280;26097;42.366;23.818;2022-12-05T16:18:51;94901.09;;;3.61;100.00
40384;BME280;26097;42.366;23.818;2022-12-05T16:22:16;94906.03;;;3.67;100.00
40384;BME280;26097;42.366;23.818;2022-12-05T16:25:35;94904.25;;;3.69;100.00
40384;BME280;26097;42.366;23.818;2022-12-05T16:28:36;94905.88;;;3.71;100.00
40384;BME280;26097;42.366;23.818;2022-12-05T16:31:37;94900.66;;;3.73;100.00
40384;BME280;26097;42.366;23.818;2022-12-05T16:34:38;94910.38;;;3.66;100.00
40384;BME280;26097;42.366;23.818;2022-12-05T16:37:38;94908.59;;;3.67;100.00
40384;BME280;26097;42.366;23.818;2022-12-05T16:40:49;94917.91;;;3.71;100.00
40384;BME280;26097;42.366;23.818;2022-12-05T16:43:50;94915.28;;;3.72;100.00
40384;BME280;26097;42.366;23.818;2022-12-05T16:46:52;94910.81;;;3.78;100.00
40384;BME280;26097;42.366;23.818;2022-12-05T16:49:52;94904.97;;;3.72;100.00
40384;BME280;26097;42.366;23.818;2022-12-05T16:56:22;94901.53;;;3.72;100.00
40384;BME280;26097;42.366;23.818;2022-12-05T16:59:29;94905.91;;;3.70;100.00
40384;BME280;26097;42.366;23.818;2022-12-05T17:02:31;94902.44;;;3.71;100.00
40384;BME280;26097;42.366;23.818;2022-12-05T17:05:31;94900.72;;;3.71;100.00
40384;BME280;26097;42.366;23.818;2022-12-05T17:08:31;94904.13;;;3.72;100.00
40384;BME280;26097;42.366;23.818;2022-12-05T17:11:33;94897.50;;;3.65;100.00
40384;BME280;26097;42.366;23.818;2022-12-05T17:14:34;94903.56;;;3.64;100.00
40384;BME280;26097;42.366;23.818;2022-12-05T17:17:35;94907.94;;;3.62;100.00
40384;BME280;26097;42.366;23.818;2022-12-05T17:20:37;94904.56;;;3.60;100.00
40384;BME280;26097;42.366;23.818;2022-12-05T17:23:38;94907.28;;;3.56;100.00
40384;BME280;26097;42.366;23.818;2022-12-05T17:26:38;94902.91;;;3.59;100.00
40384;BME280;26097;42.366;23.818;2022-12-05T17:29:39;94907.94;;;3.62;100.00
40384;BME280;26097;42.366;23.818;2022-12-05T17:32:39;94901.09;;;3.61;100.00
40384;BME280;26097;42.366;23.818;2022-12-05T17:35:40;94903.56;;;3.64;100.00
40384;BME280;26097;42.366;23.818;2022-12-05T17:38:41;94906.94;;;3.66;100.00
40384;BME280;26097;42.366;23.818;2022-12-05T17:41:41;94910.38;;;3.66;100.00
40384;BME280;26097;42.366;23.818;2022-12-05T17:44:42;94901.84;;;3.64;100.00
40384;BME280;26097;42.366;23.818;2022-12-05T17:47:42;94901.78;;;3.66;100.00
40384;BME280;26097;42.366;23.818;2022-12-05T17:50:45;94903.69;;;3.61;100.00
40384;BME280;26097;42.366;23.818;2022-12-05T17:53:46;94904.56;;;3.60;100.00
40384;BME280;26097;42.366;23.818;2022-12-05T17:56:47;94902.00;;;3.60;100.00
40384;BME280;26097;42.366;23.818;2022-12-05T17:59:47;94901.09;;;3.61;100.00
40384;BME280;26097;42.366;23.818;2022-12-05T18:02:48;94905.38;;;3.62;100.00
40384;BME280;26097;42.366;23.818;2022-12-05T18:05:48;94902.13;;;3.56;100.00
40384;BME280;26097;42.366;23.818;2022-12-05T18:08:49;94901.34;;;3.54;100.00
40384;BME280;26097;42.366;23.818;2022-12-05T18:11:49;94909.72;;;3.60;100.00
40384;BME280;26097;42.366;23.818;2022-12-05T18:14:50;94912.34;;;3.58;100.00
40384;BME280;26097;42.366;23.818;2022-12-05T18:17:50;94914.03;;;3.59;100.00
40384;BME280;26097;42.366;23.818;2022-12-05T18:20:51;94910.53;;;3.62;100.00
40384;BME280;26097;42.366;23.818;2022-12-05T18:23:51;94911.41;;;3.61;100.00
40384;BME280;26097;42.366;23.818;2022-12-05T18:26:51;94923.41;;;3.62;100.00
40384;BME280;26097;42.366;23.818;2022-12-05T18:29:54;94916.56;;;3.61;100.00
40384;BME280;26097;42.366;23.818;2022-12-05T18:32:55;94920.84;;;3.62;100.00
40384;BME280;26097;42.366;23.818;2022-12-05T18:35:55;94916.56;;;3.61;100.00
40384;BME280;26097;42.366;23.818;2022-12-05T18:38:56;94925.09;;;3.63;100.00
40384;BME280;26097;42.366;23.818;2022-12-05T18:41:57;94928.50;;;3.63;100.00